sensor_id;sensor_type;location;lat;lon;timestamp;pressure;altitude;pressure_sealevel;temperature;humidity
47883;BME280;37739;50.350;7.578;2023-05-20T00:00:56;100189.25;;;15.44;45.97
47883;BME280;37739;50.350;7.578;2023-05-20T00:03:22;100189.22;;;15.43;46.69
47883;BME280;37739;50.350;7.578;2023-05-20T00:05:52;100190.91;;;15.41;47.13
47883;BME280;37739;50.350;7.578;2023-05-20T00:08:18;100186.59;;;15.41;46.65
47883;BME280;37739;50.350;7.578;2023-05-20T00:10:46;100169.72;;;15.56;46.45
47883;BME280;37739;50.350;7.578;2023-05-20T00:13:11;100177.34;;;15.51;46.54
47883;BME280;37739;50.350;7.578;2023-05-20T00:15:37;100176.00;;;15.67;46.59
47883;BME280;37739;50.350;7.578;2023-05-20T00:18:03;100172.75;;;15.39;47.38
47883;BME280;37739;50.350;7.578;2023-05-20T00:20:28;100177.47;;;15.19;48.10
47883;BME280;37739;50.350;7.578;2023-05-20T00:22:53;100169.91;;;15.27;47.72
47883;BME280;37739;50.350;7.578;2023-05-20T00:25:21;100163.44;;;15.46;47.34
47883;BME280;37739;50.350;7.578;2023-05-20T00:27:46;100162.50;;;15.42;47.12
47883;BME280;37739;50.350;7.578;2023-05-20T00:30:12;100170.53;;;15.17;47.89
47883;BME280;37739;50.350;7.578;2023-05-20T00:32:40;100171.41;;;15.17;47.90
47883;BME280;37739;50.350;7.578;2023-05-20T00:35:08;100167.28;;;15.25;47.69
47883;BME280;37739;50.350;7.578;2023-05-20T00:37:37;100164.88;;;15.33;47.56
47883;BME280;37739;50.350;7.578;2023-05-20T00:40:03;100157.38;;;15.44;47.45
47883;BME280;37739;50.350;7.578;2023-05-20T00:42:29;100162.31;;;15.35;47.59
47883;BME280;37739;50.350;7.578;2023-05-20T00:44:54;100154.34;;;15.25;48.19
47883;BME280;37739;50.350;7.578;2023-05-20T00:47:23;100158.72;;;15.28;47.78
47883;BME280;37739;50.350;7.578;2023-05-20T00:49:50;100163.28;;;15.38;47.63
47883;BME280;37739;50.350;7.578;2023-05-20T00:52:18;100158.03;;;15.35;47.80
47883;BME280;37739;50.350;7.578;2023-05-20T00:54:48;100151.31;;;15.42;47.54
47883;BME280;37739;50.350;7.578;2023-05-20T00:57:14;100164.41;;;15.49;47.62
47883;BME280;37739;50.350;7.578;2023-05-20T00:59:39;100165.19;;;15.47;47.66
47883;BME280;37739;50.350;7.578;2023-05-20T01:02:05;100154.53;;;15.33;47.90
47883;BME280;37739;50.350;7.578;2023-05-20T01:04:33;100155.31;;;15.29;48.71
47883;BME280;37739;50.350;7.578;2023-05-20T01:07:01;100152.22;;;15.07;49.18
47883;BME280;37739;50.350;7.578;2023-05-20T01:09:28;100149.13;;;15.22;48.66
47883;BME280;37739;50.350;7.578;2023-05-20T01:12:15;100156.66;;;15.13;49.77
47883;BME280;37739;50.350;7.578;2023-05-20T01:14:49;100148.81;;;15.10;49.55
47883;BME280;37739;50.350;7.578;2023-05-20T01:17:20;100152.97;;;15.05;49.19
47883;BME280;37739;50.350;7.578;2023-05-20T01:19:51;100146.84;;;15.00;49.33
47883;BME280;37739;50.350;7.578;2023-05-20T01:22:18;100148.81;;;15.10;49.06
47883;BME280;37739;50.350;7.578;2023-05-20T01:24:45;100146.53;;;15.22;48.94
47883;BME280;37739;50.350;7.578;2023-05-20T01:27:16;100142.31;;;14.91;50.58
47883;BME280;37739;50.350;7.578;2023-05-20T01:29:44;100147.06;;;14.74;50.29
47883;BME280;37739;50.350;7.578;2023-05-20T01:32:25;100140.66;;;14.93;50.11
47883;BME280;37739;50.350;7.578;2023-05-20T01:34:52;100144.38;;;15.04;49.33
47883;BME280;37739;50.350;7.578;2023-05-20T01:37:21;100138.97;;;14.95;49.43
47883;BME280;37739;50.350;7.578;2023-05-20T01:39:48;100136.72;;;14.72;50.42
47883;BME280;37739;50.350;7.578;2023-05-20T01:42:18;100142.00;;;14.45;51.10
47883;BME280;37739;50.350;7.578;2023-05-20T01:44:44;100142.44;;;14.62;50.54
47883;BME280;37739;50.350;7.578;2023-05-20T01:47:10;100139.84;;;14.61;50.54
47883;BME280;37739;50.350;7.578;2023-05-20T01:49:38;100140.13;;;14.40;51.60
47883;BME280;37739;50.350;7.578;2023-05-20T01:52:06;100138.78;;;14.54;50.73
47883;BME280;37739;50.350;7.578;2023-05-20T01:54:36;100136.53;;;14.66;51.11
47883;BME280;37739;50.350;7.578;2023-05-20T01:57:04;100133.06;;;14.66;50.87
47883;BME280;37739;50.350;7.578;2023-05-20T01:59:29;100125.09;;;14.57;50.89
47883;BME280;37739;50.350;7.578;2023-05-20T02:01:54;100123.31;;;14.56;51.43
47883;BME280;37739;50.350;7.578;2023-05-20T02:04:20;100133.56;;;14.52;51.34
47883;BME280;37739;50.350;7.578;2023-05-20T02:06:46;100128.44;;;14.54;50.80
47883;BME280;37739;50.350;7.578;2023-05-20T02:09:14;100131.31;;;14.63;50.80
47883;BME280;37739;50.350;7.578;2023-05-20T02:11:42;100127.72;;;14.58;50.99
47883;BME280;37739;50.350;7.578;2023-05-20T02:14:07;100127.53;;;14.52;51.51
47883;BME280;37739;50.350;7.578;2023-05-20T02:16:35;100130.88;;;14.48;51.22
47883;BME280;37739;50.350;7.578;2023-05-20T02:19:00;100125.75;;;14.49;51.60
47883;BME280;37739;50.350;7.578;2023-05-20T02:21:26;100128.16;;;14.43;52.10
47883;BME280;37739;50.350;7.578;2023-05-20T02:23:51;100132.38;;;14.40;51.66
47883;BME280;37739;50.350;7.578;2023-05-20T02:26:16;100129.81;;;14.40;51.81
47883;BME280;37739;50.350;7.578;2023-05-20T02:28:42;100121.34;;;14.47;51.29
47883;BME280;37739;50.350;7.578;2023-05-20T02:31:14;100127.63;;;14.55;51.67
47883;BME280;37739;50.350;7.578;2023-05-20T02:33:40;100122.00;;;14.38;52.02
47883;BME280;37739;50.350;7.578;2023-05-20T02:36:06;100126.00;;;14.27;52.31
47883;BME280;37739;50.350;7.578;2023-05-20T02:38:31;100119.13;;;14.27;52.21
47883;BME280;37739;50.350;7.578;2023-05-20T02:40:58;100117.81;;;14.42;51.99
47883;BME280;37739;50.350;7.578;2023-05-20T02:43:24;100114.31;;;14.41;52.18
47883;BME280;37739;50.350;7.578;2023-05-20T02:45:49;100111.78;;;14.43;52.14
47883;BME280;37739;50.350;7.578;2023-05-20T02:48:15;100112.66;;;14.43;52.10
47883;BME280;37739;50.350;7.578;2023-05-20T02:50:40;100113.31;;;14.34;52.26
47883;BME280;37739;50.350;7.578;2023-05-20T02:53:05;100111.44;;;14.29;53.08
47883;BME280;37739;50.350;7.578;2023-05-20T02:55:33;100113.00;;;14.24;53.35
47883;BME280;37739;50.350;7.578;2023-05-20T02:57:59;100106.88;;;14.20;53.24
47883;BME280;37739;50.350;7.578;2023-05-20T03:00:25;100099.91;;;14.16;53.12
47883;BME280;37739;50.350;7.578;2023-05-20T03:02:52;100103.47;;;14.21;52.85
47883;BME280;37739;50.350;7.578;2023-05-20T03:05:17;100100.91;;;14.21;53.56
47883;BME280;37739;50.350;7.578;2023-05-20T03:07:43;100105.09;;;14.18;53.04
47883;BME280;37739;50.350;7.578;2023-05-20T03:10:10;100106.94;;;14.22;53.25
47883;BME280;37739;50.350;7.578;2023-05-20T03:12:35;100110.41;;;14.22;53.24
47883;BME280;37739;50.350;7.578;2023-05-20T03:15:03;100111.13;;;14.17;53.65
47883;BME280;37739;50.350;7.578;2023-05-20T03:17:28;100107.91;;;13.95;54.80
47883;BME280;37739;50.350;7.578;2023-05-20T03:19:54;100110.22;;;13.84;55.37
47883;BME280;37739;50.350;7.578;2023-05-20T03:22:21;100111.88;;;13.82;54.61
47883;BME280;37739;50.350;7.578;2023-05-20T03:24:47;100113.66;;;13.85;54.56
47883;BME280;37739;50.350;7.578;2023-05-20T03:27:16;100106.03;;;13.89;54.48
47883;BME280;37739;50.350;7.578;2023-05-20T03:29:42;100112.38;;;14.01;54.13
47883;BME280;37739;50.350;7.578;2023-05-20T03:32:07;100117.88;;;14.13;53.67
47883;BME280;37739;50.350;7.578;2023-05-20T03:34:36;100110.00;;;14.07;54.58
47883;BME280;37739;50.350;7.578;2023-05-20T03:37:03;100114.13;;;14.02;54.21
47883;BME280;37739;50.350;7.578;2023-05-20T03:39:29;100108.81;;;13.96;54.90
47883;BME280;37739;50.350;7.578;2023-05-20T03:41:54;100110.53;;;13.97;54.69
47883;BME280;37739;50.350;7.578;2023-05-20T03:44:19;100110.16;;;14.13;54.59
47883;BME280;37739;50.350;7.578;2023-05-20T03:46:45;100104.69;;;14.02;54.89
47883;BME280;37739;50.350;7.578;2023-05-20T03:49:10;100102.84;;;13.98;54.76
47883;BME280;37739;50.350;7.578;2023-05-20T03:51:35;100102.16;;;14.04;55.03
47883;BME280;37739;50.350;7.578;2023-05-20T03:54:01;100107.22;;;14.01;54.87
47883;BME280;37739;50.350;7.578;2023-05-20T03:56:29;100108.13;;;14.03;55.12
47883;BME280;37739;50.350;7.578;2023-05-20T03:58:57;100108.97;;;14.02;54.81
47883;BME280;37739;50.350;7.578;2023-05-20T04:01:25;100110.41;;;13.92;56.32
47883;BME280;37739;50.350;7.578;2023-05-20T04:03:50;100109.63;;;13.94;55.41
47883;BME280;37739;50.350;7.578;2023-05-20T04:06:16;100110.59;;;13.98;55.69
47883;BME280;37739;50.350;7.578;2023-05-20T04:08:43;100110.06;;;13.80;56.49
47883;BME280;37739;50.350;7.578;2023-05-20T04:11:09;100111.69;;;13.76;56.29
47883;BME280;37739;50.350;7.578;2023-05-20T04:13:34;100110.09;;;13.81;56.16
47883;BME280;37739;50.350;7.578;2023-05-20T04:16:02;100106.44;;;13.73;56.38
47883;BME280;37739;50.350;7.578;2023-05-20T04:18:29;100103.44;;;13.89;56.07
47883;BME280;37739;50.350;7.578;2023-05-20T04:20:58;100103.44;;;13.88;56.28
47883;BME280;37739;50.350;7.578;2023-05-20T04:23:25;100098.94;;;13.81;56.33
47883;BME280;37739;50.350;7.578;2023-05-20T04:25:51;100097.38;;;13.86;55.93
47883;BME280;37739;50.350;7.578;2023-05-20T04:28:16;100101.78;;;13.90;56.29
47883;BME280;37739;50.350;7.578;2023-05-20T04:30:41;100109.72;;;13.98;56.06
47883;BME280;37739;50.350;7.578;2023-05-20T04:33:09;100106.50;;;13.74;56.60
47883;BME280;37739;50.350;7.578;2023-05-20T04:35:35;100105.59;;;13.74;57.29
47883;BME280;37739;50.350;7.578;2023-05-20T04:38:01;100105.56;;;13.72;57.19
47883;BME280;37739;50.350;7.578;2023-05-20T04:40:29;100108.00;;;13.68;57.44
47883;BME280;37739;50.350;7.578;2023-05-20T04:42:54;100107.72;;;13.59;57.83
47883;BME280;37739;50.350;7.578;2023-05-20T04:45:20;100108.78;;;13.65;57.60
47883;BME280;37739;50.350;7.578;2023-05-20T04:47:47;100112.84;;;13.57;57.58
47883;BME280;37739;50.350;7.578;2023-05-20T04:50:15;100106.38;;;13.71;57.31
47883;BME280;37739;50.350;7.578;2023-05-20T04:52:41;100106.50;;;13.74;57.13
47883;BME280;37739;50.350;7.578;2023-05-20T04:55:09;100106.38;;;13.71;57.69
47883;BME280;37739;50.350;7.578;2023-05-20T04:57:35;100101.75;;;13.60;57.83
47883;BME280;37739;50.350;7.578;2023-05-20T05:00:03;100100.94;;;13.61;58.18
47883;BME280;37739;50.350;7.578;2023-05-20T05:02:31;100092.47;;;13.65;57.25
47883;BME280;37739;50.350;7.578;2023-05-20T05:04:57;100096.94;;;13.72;57.91
47883;BME280;37739;50.350;7.578;2023-05-20T05:07:22;100089.13;;;13.69;58.79
47883;BME280;37739;50.350;7.578;2023-05-20T05:09:49;100090.88;;;13.70;57.86
47883;BME280;37739;50.350;7.578;2023-05-20T05:12:15;100086.91;;;13.81;57.69
47883;BME280;37739;50.350;7.578;2023-05-20T05:14:40;100095.59;;;13.85;57.65
47883;BME280;37739;50.350;7.578;2023-05-20T05:17:06;100089.41;;;13.78;58.56
47883;BME280;37739;50.350;7.578;2023-05-20T05:19:31;100085.28;;;13.85;57.62
47883;BME280;37739;50.350;7.578;2023-05-20T05:21:56;100088.59;;;13.81;58.32
47883;BME280;37739;50.350;7.578;2023-05-20T05:24:22;100092.75;;;13.75;58.64
47883;BME280;37739;50.350;7.578;2023-05-20T05:26:47;100086.94;;;13.83;58.49
47883;BME280;37739;50.350;7.578;2023-05-20T05:29:12;100079.91;;;13.77;58.77
47883;BME280;37739;50.350;7.578;2023-05-20T05:31:38;100081.75;;;13.81;58.54
47883;BME280;37739;50.350;7.578;2023-05-20T05:34:03;100078.41;;;13.84;59.16
47883;BME280;37739;50.350;7.578;2023-05-20T05:36:32;100087.53;;;13.74;59.15
47883;BME280;37739;50.350;7.578;2023-05-20T05:39:02;100082.88;;;13.91;58.25
47883;BME280;37739;50.350;7.578;2023-05-20T05:41:27;100086.69;;;13.73;59.33
47883;BME280;37739;50.350;7.578;2023-05-20T05:43:53;100091.19;;;13.81;58.70
47883;BME280;37739;50.350;7.578;2023-05-20T05:46:23;100089.97;;;13.98;58.13
47883;BME280;37739;50.350;7.578;2023-05-20T05:48:50;100086.56;;;14.01;58.81
47883;BME280;37739;50.350;7.578;2023-05-20T05:51:16;100090.44;;;13.85;59.39
47883;BME280;37739;50.350;7.578;2023-05-20T05:53:44;100093.97;;;13.88;59.41
47883;BME280;37739;50.350;7.578;2023-05-20T05:56:11;100090.00;;;14.00;58.98
47883;BME280;37739;50.350;7.578;2023-05-20T05:58:39;100093.97;;;14.19;59.55
47883;BME280;37739;50.350;7.578;2023-05-20T06:01:04;100091.13;;;14.09;59.02
47883;BME280;37739;50.350;7.578;2023-05-20T06:03:31;100090.06;;;14.03;59.34
47883;BME280;37739;50.350;7.578;2023-05-20T06:05:56;100086.56;;;14.01;59.24
47883;BME280;37739;50.350;7.578;2023-05-20T06:08:22;100082.13;;;13.95;60.43
47883;BME280;37739;50.350;7.578;2023-05-20T06:10:50;100089.09;;;13.98;60.32
47883;BME280;37739;50.350;7.578;2023-05-20T06:13:21;100086.13;;;14.16;59.40
47883;BME280;37739;50.350;7.578;2023-05-20T06:15:50;100084.50;;;14.19;59.60
47883;BME280;37739;50.350;7.578;2023-05-20T06:18:15;100082.03;;;14.22;58.68
47883;BME280;37739;50.350;7.578;2023-05-20T06:20:41;100075.56;;;14.38;58.78
47883;BME280;37739;50.350;7.578;2023-05-20T06:23:11;100080.50;;;14.30;59.08
47883;BME280;37739;50.350;7.578;2023-05-20T06:25:42;100083.13;;;14.32;58.87
47883;BME280;37739;50.350;7.578;2023-05-20T06:28:07;100073.13;;;14.44;58.94
47883;BME280;37739;50.350;7.578;2023-05-20T06:30:33;100071.56;;;14.51;59.20
47883;BME280;37739;50.350;7.578;2023-05-20T06:32:58;100069.91;;;14.53;58.61
47883;BME280;37739;50.350;7.578;2023-05-20T06:35:23;100067.56;;;14.29;60.15
47883;BME280;37739;50.350;7.578;2023-05-20T06:37:53;100058.97;;;14.28;59.42
47883;BME280;37739;50.350;7.578;2023-05-20T06:40:24;100064.56;;;14.45;59.81
47883;BME280;37739;50.350;7.578;2023-05-20T06:42:51;100065.53;;;14.50;59.06
47883;BME280;37739;50.350;7.578;2023-05-20T06:45:16;100058.91;;;14.60;59.13
47883;BME280;37739;50.350;7.578;2023-05-20T06:47:46;100057.03;;;14.89;58.74
47883;BME280;37739;50.350;7.578;2023-05-20T06:50:14;100051.13;;;14.95;57.99
47883;BME280;37739;50.350;7.578;2023-05-20T06:52:39;100048.28;;;15.21;58.01
47883;BME280;37739;50.350;7.578;2023-05-20T06:55:05;100047.22;;;15.12;58.07
47883;BME280;37739;50.350;7.578;2023-05-20T06:57:33;100050.09;;;15.25;57.35
47883;BME280;37739;50.350;7.578;2023-05-20T06:59:58;100051.66;;;15.18;58.45
47883;BME280;37739;50.350;7.578;2023-05-20T07:02:24;100053.28;;;15.13;59.21
47883;BME280;37739;50.350;7.578;2023-05-20T07:04:49;100046.09;;;15.38;58.31
47883;BME280;37739;50.350;7.578;2023-05-20T07:07:14;100045.63;;;15.59;57.71
47883;BME280;37739;50.350;7.578;2023-05-20T07:09:42;100045.09;;;15.74;56.95
47883;BME280;37739;50.350;7.578;2023-05-20T07:12:07;100047.38;;;15.60;57.39
47883;BME280;37739;50.350;7.578;2023-05-20T07:14:33;100045.47;;;15.51;58.82
47883;BME280;37739;50.350;7.578;2023-05-20T07:16:58;100048.66;;;15.39;58.42
47883;BME280;37739;50.350;7.578;2023-05-20T07:19:23;100043.63;;;15.44;58.14
47883;BME280;37739;50.350;7.578;2023-05-20T07:21:51;100035.69;;;15.36;59.32
47883;BME280;37739;50.350;7.578;2023-05-20T07:24:16;100036.66;;;15.40;60.38
47883;BME280;37739;50.350;7.578;2023-05-20T07:26:42;100036.75;;;15.46;59.83
47883;BME280;37739;50.350;7.578;2023-05-20T07:29:12;100036.53;;;15.35;60.33
47883;BME280;37739;50.350;7.578;2023-05-20T07:31:40;100035.88;;;15.44;60.64
47883;BME280;37739;50.350;7.578;2023-05-20T07:34:05;100044.44;;;15.43;59.42
47883;BME280;37739;50.350;7.578;2023-05-20T07:36:33;100034.22;;;15.49;60.42
47883;BME280;37739;50.350;7.578;2023-05-20T07:39:01;100029.00;;;15.46;60.33
47883;BME280;37739;50.350;7.578;2023-05-20T07:41:26;100031.56;;;15.44;60.26
47883;BME280;37739;50.350;7.578;2023-05-20T07:43:51;100026.16;;;15.34;60.54
47883;BME280;37739;50.350;7.578;2023-05-20T07:46:19;100028.28;;;15.51;60.02
47883;BME280;37739;50.350;7.578;2023-05-20T07:48:45;100026.78;;;15.64;59.88
47883;BME280;37739;50.350;7.578;2023-05-20T07:51:11;100013.03;;;15.65;61.36
47883;BME280;37739;50.350;7.578;2023-05-20T07:53:36;100011.16;;;15.58;61.44
47883;BME280;37739;50.350;7.578;2023-05-20T07:56:04;100001.94;;;15.71;61.89
47883;BME280;37739;50.350;7.578;2023-05-20T07:58:32;100005.19;;;15.62;61.13
47883;BME280;37739;50.350;7.578;2023-05-20T08:01:02;100003.78;;;15.77;61.50
47883;BME280;37739;50.350;7.578;2023-05-20T08:03:27;100006.09;;;15.63;61.79
47883;BME280;37739;50.350;7.578;2023-05-20T08:05:55;100003.00;;;15.81;61.49
47883;BME280;37739;50.350;7.578;2023-05-20T08:08:20;100015.25;;;15.91;60.94
47883;BME280;37739;50.350;7.578;2023-05-20T08:10:46;100013.69;;;15.98;60.94
47883;BME280;37739;50.350;7.578;2023-05-20T08:13:13;100019.84;;;16.06;60.85
47883;BME280;37739;50.350;7.578;2023-05-20T08:15:38;100013.13;;;16.16;60.98
47883;BME280;37739;50.350;7.578;2023-05-20T08:18:06;100010.56;;;16.17;60.81
47883;BME280;37739;50.350;7.578;2023-05-20T08:20:32;100007.03;;;16.12;60.57
47883;BME280;37739;50.350;7.578;2023-05-20T08:22:57;100007.06;;;16.14;60.28
47883;BME280;37739;50.350;7.578;2023-05-20T08:25:25;100007.09;;;16.15;60.22
47883;BME280;37739;50.350;7.578;2023-05-20T08:27:55;100005.72;;;16.37;61.19
47883;BME280;37739;50.350;7.578;2023-05-20T08:30:25;100002.47;;;16.47;59.76
47883;BME280;37739;50.350;7.578;2023-05-20T08:32:51;100008.59;;;16.54;59.33
47883;BME280;37739;50.350;7.578;2023-05-20T08:35:19;99993.13;;;16.57;59.27
47883;BME280;37739;50.350;7.578;2023-05-20T08:37:48;99988.19;;;16.73;59.29
47883;BME280;37739;50.350;7.578;2023-05-20T08:40:14;99985.59;;;16.76;59.19
47883;BME280;37739;50.350;7.578;2023-05-20T08:42:43;99986.25;;;17.19;59.09
47883;BME280;37739;50.350;7.578;2023-05-20T08:45:14;99993.19;;;17.21;58.26
47883;BME280;37739;50.350;7.578;2023-05-20T08:47:41;99988.94;;;17.25;58.57
47883;BME280;37739;50.350;7.578;2023-05-20T08:50:11;100000.22;;;17.29;58.24
47883;BME280;37739;50.350;7.578;2023-05-20T08:52:45;99991.47;;;17.22;58.24
47883;BME280;37739;50.350;7.578;2023-05-20T08:55:29;99984.56;;;17.21;57.75
47883;BME280;37739;50.350;7.578;2023-05-20T08:57:55;99981.03;;;17.16;58.28
47883;BME280;37739;50.350;7.578;2023-05-20T09:00:22;99981.03;;;17.16;57.95
47883;BME280;37739;50.350;7.578;2023-05-20T09:02:53;99979.28;;;17.16;57.71
47883;BME280;37739;50.350;7.578;2023-05-20T09:05:21;99985.94;;;17.66;57.72
47883;BME280;37739;50.350;7.578;2023-05-20T09:07:47;99985.28;;;17.82;57.09
47883;BME280;37739;50.350;7.578;2023-05-20T09:10:12;99979.50;;;18.08;56.87
47883;BME280;37739;50.350;7.578;2023-05-20T09:12:40;99974.66;;;18.50;55.82
47883;BME280;37739;50.350;7.578;2023-05-20T09:15:06;99983.94;;;18.21;55.24
47883;BME280;37739;50.350;7.578;2023-05-20T09:17:35;99988.97;;;18.04;56.08
47883;BME280;37739;50.350;7.578;2023-05-20T09:20:04;99980.69;;;18.47;55.41
47883;BME280;37739;50.350;7.578;2023-05-20T09:22:30;99985.94;;;18.56;55.49
47883;BME280;37739;50.350;7.578;2023-05-20T09:24:55;99983.66;;;18.96;54.01
47883;BME280;37739;50.350;7.578;2023-05-20T09:27:23;99981.09;;;19.02;54.62
47883;BME280;37739;50.350;7.578;2023-05-20T09:29:53;99978.22;;;18.69;54.34
47883;BME280;37739;50.350;7.578;2023-05-20T09:32:20;99986.81;;;18.55;54.84
47883;BME280;37739;50.350;7.578;2023-05-20T09:34:51;99982.63;;;18.76;54.54
47883;BME280;37739;50.350;7.578;2023-05-20T09:37:20;99983.47;;;18.76;54.64
47883;BME280;37739;50.350;7.578;2023-05-20T09:39:59;99982.72;;;18.85;54.94
47883;BME280;37739;50.350;7.578;2023-05-20T09:42:37;99972.91;;;18.50;55.04
47883;BME280;37739;50.350;7.578;2023-05-20T09:45:05;99977.34;;;18.67;54.91
47883;BME280;37739;50.350;7.578;2023-05-20T09:47:34;99969.56;;;18.68;55.07
47883;BME280;37739;50.350;7.578;2023-05-20T09:50:00;99967.97;;;18.84;54.07
47883;BME280;37739;50.350;7.578;2023-05-20T09:52:28;99965.31;;;18.79;54.32
47883;BME280;37739;50.350;7.578;2023-05-20T09:54:54;99969.78;;;18.99;54.56
47883;BME280;37739;50.350;7.578;2023-05-20T09:57:23;99970.69;;;19.04;53.60
47883;BME280;37739;50.350;7.578;2023-05-20T09:59:49;99975.81;;;18.93;54.00
47883;BME280;37739;50.350;7.578;2023-05-20T10:02:16;99975.88;;;19.02;54.12
47883;BME280;37739;50.350;7.578;2023-05-20T10:04:46;99971.63;;;19.15;53.81
47883;BME280;37739;50.350;7.578;2023-05-20T10:12:54;99963.56;;;18.74;54.89
47883;BME280;37739;50.350;7.578;2023-05-20T10:17:57;99958.22;;;18.57;55.78
47883;BME280;37739;50.350;7.578;2023-05-20T10:20:26;99956.56;;;18.67;55.38
47883;BME280;37739;50.350;7.578;2023-05-20T10:22:56;99957.47;;;18.67;55.08
47883;BME280;37739;50.350;7.578;2023-05-20T10:25:28;99943.56;;;18.63;55.15
47883;BME280;37739;50.350;7.578;2023-05-20T10:28:07;99946.22;;;18.74;54.82
47883;BME280;37739;50.350;7.578;2023-05-20T10:30:35;99948.19;;;19.11;55.01
47883;BME280;37739;50.350;7.578;2023-05-20T10:33:04;99949.03;;;19.02;53.64
47883;BME280;37739;50.350;7.578;2023-05-20T10:35:33;99952.53;;;19.15;53.53
47883;BME280;37739;50.350;7.578;2023-05-20T10:38:12;99949.88;;;19.07;54.02
47883;BME280;37739;50.350;7.578;2023-05-20T10:40:40;99948.22;;;19.18;53.86
47883;BME280;37739;50.350;7.578;2023-05-20T10:43:10;99950.78;;;19.12;54.79
47883;BME280;37739;50.350;7.578;2023-05-20T10:45:55;99949.22;;;19.48;54.03
47883;BME280;37739;50.350;7.578;2023-05-20T10:51:02;99951.78;;;19.34;53.47
47883;BME280;37739;50.350;7.578;2023-05-20T10:53:41;99952.78;;;19.79;52.11
47883;BME280;37739;50.350;7.578;2023-05-20T10:56:22;99958.69;;;19.31;52.97
47883;BME280;37739;50.350;7.578;2023-05-20T10:58:53;99961.16;;;19.05;53.86
47883;BME280;37739;50.350;7.578;2023-05-20T11:01:25;99955.22;;;19.33;53.90
47883;BME280;37739;50.350;7.578;2023-05-20T11:03:54;99953.66;;;19.89;52.03
47883;BME280;37739;50.350;7.578;2023-05-20T11:06:27;99962.25;;;19.57;51.98
47883;BME280;37739;50.350;7.578;2023-05-20T11:09:02;99965.69;;;19.50;53.03
47883;BME280;37739;50.350;7.578;2023-05-20T11:11:29;99957.03;;;19.56;53.28
47883;BME280;37739;50.350;7.578;2023-05-20T11:13:56;99961.28;;;19.29;53.72
47883;BME280;37739;50.350;7.578;2023-05-20T11:16:21;99956.91;;;19.22;54.07
47883;BME280;37739;50.350;7.578;2023-05-20T11:18:49;99952.56;;;19.19;53.73
47883;BME280;37739;50.350;7.578;2023-05-20T11:21:17;99949.91;;;19.09;54.25
47883;BME280;37739;50.350;7.578;2023-05-20T11:23:46;99954.25;;;19.03;54.68
47883;BME280;37739;50.350;7.578;2023-05-20T11:26:14;99949.00;;;19.00;54.20
47883;BME280;37739;50.350;7.578;2023-05-20T11:28:39;99942.88;;;18.89;54.65
47883;BME280;37739;50.350;7.578;2023-05-20T11:31:07;99942.03;;;18.90;55.58
47883;BME280;37739;50.350;7.578;2023-05-20T11:33:32;99944.66;;;18.99;55.49
47883;BME280;37739;50.350;7.578;2023-05-20T11:35:58;99933.25;;;18.77;55.04
47883;BME280;37739;50.350;7.578;2023-05-20T11:38:23;99939.13;;;18.44;55.70
47883;BME280;37739;50.350;7.578;2023-05-20T11:40:53;99940.97;;;18.62;55.52
47883;BME280;37739;50.350;7.578;2023-05-20T11:43:22;99935.66;;;18.47;55.94
47883;BME280;37739;50.350;7.578;2023-05-20T11:45:55;99932.28;;;18.55;55.25
47883;BME280;37739;50.350;7.578;2023-05-20T11:48:26;99933.91;;;18.44;55.59
47883;BME280;37739;50.350;7.578;2023-05-20T11:50:55;99930.44;;;18.45;55.67
47883;BME280;37739;50.350;7.578;2023-05-20T11:53:21;99927.03;;;18.48;56.25
47883;BME280;37739;50.350;7.578;2023-05-20T11:55:59;99927.72;;;18.25;56.23
47883;BME280;37739;50.350;7.578;2023-05-20T11:58:28;99931.94;;;18.12;55.34
47883;BME280;37739;50.350;7.578;2023-05-20T12:00:57;99927.28;;;18.85;54.53
47883;BME280;37739;50.350;7.578;2023-05-20T12:03:24;99923.97;;;19.30;53.47
47883;BME280;37739;50.350;7.578;2023-05-20T12:05:51;99922.31;;;19.46;52.70
47883;BME280;37739;50.350;7.578;2023-05-20T12:08:16;99921.94;;;18.72;55.04
47883;BME280;37739;50.350;7.578;2023-05-20T12:10:42;99915.81;;;18.56;55.29
47883;BME280;37739;50.350;7.578;2023-05-20T12:13:09;99913.19;;;18.53;55.68
47883;BME280;37739;50.350;7.578;2023-05-20T12:15:37;99908.88;;;18.57;55.73
47883;BME280;37739;50.350;7.578;2023-05-20T12:18:03;99906.25;;;18.52;55.80
47883;BME280;37739;50.350;7.578;2023-05-20T12:20:28;99896.72;;;18.48;55.73
47883;BME280;37739;50.350;7.578;2023-05-20T12:22:57;99895.91;;;18.58;55.63
47883;BME280;37739;50.350;7.578;2023-05-20T12:25:27;99897.84;;;18.90;54.85
47883;BME280;37739;50.350;7.578;2023-05-20T12:27:54;99890.16;;;19.19;54.75
47883;BME280;37739;50.350;7.578;2023-05-20T12:30:23;99881.50;;;19.30;54.18
47883;BME280;37739;50.350;7.578;2023-05-20T12:32:49;99879.75;;;19.18;53.83
47883;BME280;37739;50.350;7.578;2023-05-20T12:35:25;99881.47;;;19.14;53.93
47883;BME280;37739;50.350;7.578;2023-05-20T12:37:51;99876.28;;;19.22;54.33
47883;BME280;37739;50.350;7.578;2023-05-20T12:40:16;99884.97;;;19.27;53.99
47883;BME280;37739;50.350;7.578;2023-05-20T12:42:44;99883.31;;;19.65;53.35
47883;BME280;37739;50.350;7.578;2023-05-20T12:45:11;99877.19;;;20.69;51.73
47883;BME280;37739;50.350;7.578;2023-05-20T12:47:37;99875.34;;;21.03;50.05
47883;BME280;37739;50.350;7.578;2023-05-20T12:50:06;99872.00;;;20.75;50.04
47883;BME280;37739;50.350;7.578;2023-05-20T12:52:36;99862.50;;;20.37;50.65
47883;BME280;37739;50.350;7.578;2023-05-20T12:55:01;99868.25;;;21.33;49.50
47883;BME280;37739;50.350;7.578;2023-05-20T12:57:29;99866.22;;;21.80;48.18
47883;BME280;37739;50.350;7.578;2023-05-20T12:59:55;99870.50;;;21.87;48.29
47883;BME280;37739;50.350;7.578;2023-05-20T13:02:23;99862.91;;;22.58;46.81
47883;BME280;37739;50.350;7.578;2023-05-20T13:04:48;99853.88;;;21.97;46.69